createdAt,value
2022-08-07T00:00:09.898Z,11.3
2022-08-07T00:01:43.291Z,11.24
2022-08-07T00:02:41.057Z,11.24
2022-08-07T00:03:12.337Z,11.19
2022-08-07T00:04:15.439Z,11.17
2022-08-07T00:05:12.532Z,11.12
2022-08-07T00:06:12.467Z,11.21
2022-08-07T00:07:12.480Z,11.16
2022-08-07T00:08:12.516Z,11.16
2022-08-07T00:09:16.363Z,11.14
2022-08-07T00:10:26.533Z,11.15
2022-08-07T00:11:19.984Z,11.11
2022-08-07T00:12:19.332Z,11.13
2022-08-07T00:13:25.611Z,11.13
2022-08-07T00:14:19.111Z,11.13
2022-08-07T00:15:18.819Z,11.17
2022-08-07T00:16:21.677Z,11.14
2022-08-07T00:17:20.168Z,11.09
2022-08-07T00:18:24.398Z,11.12
2022-08-07T00:19:26.066Z,11.11
2022-08-07T00:20:29.720Z,11.14
2022-08-07T00:21:55.594Z,11.21
2022-08-07T00:22:35.176Z,11.23
2022-08-07T00:23:33.507Z,11.15
2022-08-07T00:24:32.751Z,11.14
2022-08-07T00:25:37.508Z,11.12
2022-08-07T00:26:58.954Z,11.09
2022-08-07T00:27:52.733Z,11.11
2022-08-07T00:28:35.646Z,11.09
2022-08-07T00:29:37.368Z,11.11
2022-08-07T00:30:37.559Z,11.08
2022-08-07T00:31:41.603Z,11.09
2022-08-07T00:32:38.803Z,11.1
2022-08-07T00:33:39.274Z,11.13
2022-08-07T00:34:38.760Z,11.16
2022-08-07T00:35:39.005Z,11.08
2022-08-07T00:36:43.337Z,10.96
2022-08-07T00:37:47.649Z,10.91
2022-08-07T00:38:45.044Z,10.91
2022-08-07T00:39:45.446Z,10.96
2022-08-07T00:40:46.261Z,10.98
2022-08-07T00:41:53.692Z,10.96
2022-08-07T00:42:50.352Z,11.02
2022-08-07T00:44:01.432Z,11.01
2022-08-07T00:44:54.587Z,11.04
2022-08-07T00:45:54.541Z,11.01
2022-08-07T00:46:55.244Z,11.04
2022-08-07T00:48:09.031Z,11.05
2022-08-07T00:48:57.460Z,11
2022-08-07T00:50:20.235Z,10.97
2022-08-07T00:51:01.171Z,11.02
2022-08-07T00:52:00.822Z,11.03
2022-08-07T00:53:00.859Z,11.01
2022-08-07T00:54:00.690Z,11
2022-08-07T00:55:04.611Z,10.91
2022-08-07T00:56:03.637Z,10.91
2022-08-07T00:57:02.087Z,10.9
2022-08-07T00:58:02.548Z,11.02
2022-08-07T00:59:02.255Z,10.89
2022-08-07T01:00:02.960Z,10.92
2022-08-07T01:01:02.337Z,10.93
2022-08-07T01:02:02.463Z,10.88
2022-08-07T01:03:02.697Z,10.88
2022-08-07T01:04:05.019Z,10.91
2022-08-07T01:05:05.102Z,10.92
2022-08-07T01:06:06.879Z,10.96
2022-08-07T01:07:06.644Z,10.95
2022-08-07T01:08:06.468Z,10.91
2022-08-07T01:09:06.482Z,10.87
2022-08-07T01:10:11.087Z,10.9
2022-08-07T01:11:11.868Z,10.9
2022-08-07T01:12:29.870Z,10.92
2022-08-07T01:13:12.325Z,10.86
2022-08-07T01:14:15.411Z,10.8
2022-08-07T01:15:17.613Z,10.85
2022-08-07T01:16:14.345Z,10.78
2022-08-07T01:17:17.769Z,10.67
2022-08-07T01:18:18.262Z,10.68
2022-08-07T01:19:19.708Z,10.72
2022-08-07T01:20:22.086Z,10.69
2022-08-07T01:21:22.806Z,10.74
2022-08-07T01:22:22.720Z,10.75
2022-08-07T01:23:32.688Z,10.76
2022-08-07T01:24:25.847Z,10.76
2022-08-07T01:25:54.079Z,10.75
2022-08-07T01:26:27.342Z,10.72
2022-08-07T01:27:32.088Z,10.77
2022-08-07T01:28:29.654Z,10.78
2022-08-07T01:29:31.477Z,10.76
2022-08-07T01:30:31.162Z,10.74
2022-08-07T01:31:42.634Z,10.72
2022-08-07T01:32:34.685Z,10.68
2022-08-07T01:33:53.662Z,10.7
2022-08-07T01:34:36.141Z,10.7
2022-08-07T01:35:36.876Z,10.71
2022-08-07T01:36:40.705Z,10.65
2022-08-07T01:37:37.371Z,10.6
2022-08-07T01:38:38.047Z,10.59
2022-08-07T01:39:40.969Z,10.56
2022-08-07T01:40:38.379Z,10.51
2022-08-07T01:41:40.809Z,10.54
2022-08-07T01:42:57.374Z,10.55
2022-08-07T01:43:46.511Z,10.57
2022-08-07T01:44:47.763Z,10.58
2022-08-07T01:45:46.656Z,10.6
2022-08-07T01:46:46.004Z,10.59
2022-08-07T01:48:19.976Z,10.58
2022-08-07T01:48:48.322Z,10.56
2022-08-07T01:49:47.732Z,10.62
2022-08-07T01:52:03.079Z,10.56
2022-08-07T01:52:57.021Z,10.56
2022-08-07T01:54:11.840Z,10.61
2022-08-07T01:55:00.688Z,10.56
2022-08-07T01:56:05.792Z,10.55
2022-08-07T01:57:05.816Z,10.53
2022-08-07T01:58:29.132Z,10.59
2022-08-07T02:01:58.732Z,10.54
2022-08-07T02:03:21.100Z,10.48
2022-08-07T02:04:26.598Z,10.48
2022-08-07T02:05:48.072Z,10.49
2022-08-07T02:06:31.933Z,10.46
2022-08-07T02:07:35.742Z,10.4
2022-08-07T02:08:28.026Z,10.43
2022-08-07T02:09:51.669Z,10.4
2022-08-07T02:10:30.365Z,10.32
2022-08-07T02:11:30.917Z,10.34
2022-08-07T02:12:33.393Z,10.34
2022-08-07T02:13:57.713Z,10.31
2022-08-07T02:14:40.891Z,10.26
2022-08-07T02:15:39.629Z,10.33
2022-08-07T02:16:39.214Z,10.29
2022-08-07T02:17:38.394Z,10.31
2022-08-07T02:18:38.409Z,10.31
2022-08-07T02:20:07.669Z,10.31
2022-08-07T02:20:48.506Z,10.31
2022-08-07T02:21:56.210Z,10.27
2022-08-07T02:22:44.708Z,10.32
2022-08-07T02:23:45.106Z,10.33
2022-08-07T02:24:44.821Z,10.35
2022-08-07T02:26:31.043Z,10.37
2022-08-07T02:26:46.143Z,10.31
2022-08-07T02:27:51.262Z,10.37
2022-08-07T02:28:49.968Z,10.34
2022-08-07T02:29:54.791Z,10.41
2022-08-07T02:30:52.086Z,10.34
2022-08-07T02:31:51.870Z,10.3
2022-08-07T02:33:00.615Z,10.38
2022-08-07T02:34:04.338Z,10.26
2022-08-07T02:35:00.750Z,10.26
2022-08-07T02:36:29.620Z,10.22
2022-08-07T02:37:01.712Z,10.22
2022-08-07T02:38:05.063Z,10.28
2022-08-07T02:39:16.816Z,10.27
2022-08-07T02:40:30.646Z,10.29
2022-08-07T02:41:10.957Z,10.32
2022-08-07T02:42:16.133Z,10.29
2022-08-07T02:43:13.202Z,10.31
2022-08-07T02:44:14.069Z,10.27
2022-08-07T02:45:58.528Z,10.25
2022-08-07T02:46:18.383Z,10.26
2022-08-07T02:47:23.368Z,10.16
2022-08-07T02:48:20.963Z,10.12
2022-08-07T02:49:56.269Z,10.2
2022-08-07T02:50:22.340Z,10.2
2022-08-07T02:51:42.038Z,10.19
2022-08-07T02:53:38.448Z,10.18
2022-08-07T02:54:32.399Z,10.27
2022-08-07T02:56:03.235Z,10.27
2022-08-07T02:56:34.031Z,10.33
2022-08-07T02:57:36.464Z,10.24
2022-08-07T02:58:35.603Z,10.23
2022-08-07T02:59:34.478Z,10.29
2022-08-07T03:00:35.580Z,10.23
2022-08-07T03:01:36.598Z,10.29
2022-08-07T03:02:37.247Z,10.36
2022-08-07T03:03:49.030Z,10.36
2022-08-07T03:04:43.042Z,10.36
2022-08-07T03:05:43.756Z,10.39
2022-08-07T03:06:44.812Z,10.4
2022-08-07T03:08:07.766Z,10.42
2022-08-07T03:08:45.387Z,10.49
2022-08-07T03:09:48.235Z,10.53
2022-08-07T03:10:47.641Z,10.53
2022-08-07T03:11:51.684Z,10.54
2022-08-07T03:12:49.848Z,10.59
2022-08-07T03:13:50.224Z,10.57
2022-08-07T03:14:54.688Z,10.55
2022-08-07T03:15:56.318Z,10.61
2022-08-07T03:16:54.938Z,10.63
2022-08-07T03:17:55.293Z,10.65
2022-08-07T03:18:55.107Z,10.63
2022-08-07T03:19:55.552Z,10.68
2022-08-07T03:20:54.990Z,10.69
2022-08-07T03:21:55.722Z,10.66
2022-08-07T03:22:55.045Z,10.7
2022-08-07T03:24:20.999Z,10.72
2022-08-07T03:25:00.439Z,10.67
2022-08-07T03:26:01.040Z,10.7
2022-08-07T03:27:01.124Z,10.72
2022-08-07T03:28:09.396Z,10.75
2022-08-07T03:29:02.339Z,10.74
2022-08-07T03:30:01.735Z,10.82
2022-08-07T03:31:02.469Z,10.8
2022-08-07T03:32:07.109Z,10.81
2022-08-07T03:33:10.148Z,10.84
2022-08-07T03:34:10.424Z,10.84
2022-08-07T03:35:18.160Z,10.82
2022-08-07T03:36:15.423Z,10.84
2022-08-07T03:37:16.815Z,10.9
2022-08-07T03:38:15.412Z,10.88
2022-08-07T03:39:15.986Z,10.91
2022-08-07T03:40:16.943Z,10.86
2022-08-07T03:41:15.371Z,10.89
2022-08-07T03:42:15.987Z,10.89
2022-08-07T03:43:15.369Z,10.93
2022-08-07T03:44:15.625Z,10.85
2022-08-07T03:45:31.099Z,10.85
2022-08-07T03:46:23.447Z,10.92
2022-08-07T03:47:23.522Z,10.94
2022-08-07T03:48:23.984Z,11.03
2022-08-07T03:49:23.656Z,11.09
2022-08-07T03:50:24.168Z,11.06
2022-08-07T03:51:24.961Z,11.09
2022-08-07T03:52:28.626Z,11.1
2022-08-07T03:54:04.003Z,11.19
2022-08-07T03:54:35.472Z,11.23
2022-08-07T03:55:52.918Z,11.2
2022-08-07T03:56:35.132Z,11.36
2022-08-07T03:58:34.343Z,11.33
2022-08-07T03:59:08.868Z,11.23
2022-08-07T03:59:46.559Z,11.34
2022-08-07T04:00:46.489Z,11.36
2022-08-07T04:01:46.175Z,11.37
2022-08-07T04:02:47.135Z,11.39
2022-08-07T04:03:53.442Z,11.45
2022-08-07T04:04:45.704Z,11.49
2022-08-07T04:05:45.815Z,11.48
2022-08-07T04:06:45.789Z,11.52
2022-08-07T04:07:47.619Z,11.61
2022-08-07T04:08:46.210Z,11.61
2022-08-07T04:09:50.339Z,11.58
2022-08-07T04:10:54.059Z,11.6
2022-08-07T04:12:24.482Z,11.61
2022-08-07T04:12:51.807Z,11.63
2022-08-07T04:14:33.227Z,11.6
2022-08-07T04:14:53.299Z,11.67
2022-08-07T04:15:53.347Z,11.67
2022-08-07T04:16:58.535Z,11.72
2022-08-07T04:18:56.816Z,11.69
2022-08-07T04:19:01.742Z,11.72
2022-08-07T04:20:01.221Z,11.75
2022-08-07T04:21:01.141Z,11.77
2022-08-07T04:22:08.681Z,11.88
2022-08-07T04:23:06.157Z,11.92
2022-08-07T04:24:07.462Z,11.89
2022-08-07T04:25:08.791Z,11.95
2022-08-07T04:26:09.935Z,11.97
2022-08-07T04:27:20.483Z,11.94
2022-08-07T04:28:13.476Z,12.03
2022-08-07T04:29:12.700Z,12
2022-08-07T04:30:21.221Z,12.01
2022-08-07T04:31:20.129Z,12.01
2022-08-07T04:32:17.498Z,12.11
2022-08-07T04:33:19.337Z,12.08
2022-08-07T04:34:24.058Z,12.11
2022-08-07T04:35:19.201Z,12.13
2022-08-07T04:36:22.721Z,12.17
2022-08-07T04:37:22.806Z,12.16
2022-08-07T04:38:25.119Z,12.14
2022-08-07T04:39:25.948Z,12.21
2022-08-07T04:40:29.672Z,12.24
2022-08-07T04:41:26.842Z,12.29
2022-08-07T04:42:28.895Z,12.4
2022-08-07T04:44:13.090Z,12.52
2022-08-07T04:44:30.197Z,12.57
2022-08-07T04:48:02.041Z,12.47
2022-08-07T04:52:53.924Z,12.72
2022-08-07T04:54:06.167Z,12.78
2022-08-07T04:54:59.708Z,12.93
2022-08-07T04:58:14.160Z,12.93
2022-08-07T05:00:08.941Z,12.89
2022-08-07T05:00:11.802Z,12.86
2022-08-07T05:01:13.492Z,12.91
2022-08-07T05:04:22.380Z,12.99
2022-08-07T05:05:52.561Z,12.88
2022-08-07T05:06:20.420Z,12.94
2022-08-07T05:07:28.975Z,12.99
2022-08-07T05:11:57.087Z,13.06
2022-08-07T05:14:52.110Z,13.12
2022-08-07T05:14:54.136Z,13.09
2022-08-07T05:15:43.419Z,13.07
2022-08-07T05:16:44.077Z,13.09
2022-08-07T05:17:51.671Z,13.13
2022-08-07T05:18:53.158Z,13.21
2022-08-07T05:19:52.850Z,13.39
2022-08-07T05:20:53.635Z,13.45
2022-08-07T05:22:00.494Z,13.4
2022-08-07T05:22:54.913Z,13.37
2022-08-07T05:24:01.091Z,13.35
2022-08-07T05:24:59.678Z,13.4
2022-08-07T05:26:13.679Z,13.42
2022-08-07T05:27:00.053Z,13.53
2022-08-07T05:28:02.793Z,13.6
2022-08-07T05:29:05.062Z,13.65
2022-08-07T05:30:04.185Z,13.72
2022-08-07T05:31:03.930Z,13.9
2022-08-07T05:32:04.264Z,13.93
2022-08-07T05:33:05.176Z,13.95
2022-08-07T05:34:05.534Z,13.87
2022-08-07T05:35:10.397Z,13.83
2022-08-07T05:36:12.285Z,13.79
2022-08-07T05:37:10.179Z,13.81
2022-08-07T05:38:10.736Z,13.85
2022-08-07T05:40:17.874Z,13.88
2022-08-07T05:40:18.608Z,13.92
2022-08-07T05:41:18.248Z,13.95
2022-08-07T05:42:33.339Z,13.9
2022-08-07T05:43:49.509Z,13.94
2022-08-07T05:44:29.310Z,13.98
2022-08-07T05:45:46.771Z,14.04
2022-08-07T05:46:29.417Z,14.18
2022-08-07T05:48:00.355Z,14.18
2022-08-07T05:48:30.103Z,14.15
2022-08-07T05:49:40.393Z,14.24
2022-08-07T05:50:33.606Z,14.33
2022-08-07T05:51:33.448Z,14.38
2022-08-07T05:52:36.783Z,14.33
2022-08-07T05:54:14.069Z,14.28
2022-08-07T05:54:44.593Z,14.33
2022-08-07T05:56:01.986Z,14.33
2022-08-07T05:56:43.618Z,14.48
2022-08-07T05:57:42.903Z,14.6
2022-08-07T05:58:52.337Z,14.56
2022-08-07T05:59:57.939Z,14.74
2022-08-07T06:00:46.661Z,14.78
2022-08-07T06:01:49.412Z,14.65
2022-08-07T06:02:49.689Z,14.58
2022-08-07T06:03:57.088Z,14.54
2022-08-07T06:04:55.367Z,14.59
2022-08-07T06:05:56.651Z,14.72
2022-08-07T06:07:03.683Z,14.81
2022-08-07T06:08:13.090Z,14.78
2022-08-07T06:09:00.005Z,14.79
2022-08-07T06:10:05.061Z,14.94
2022-08-07T06:11:03.882Z,15.02
2022-08-07T06:12:02.697Z,14.93
2022-08-07T06:13:02.604Z,14.85
2022-08-07T06:14:13.218Z,14.85
2022-08-07T06:15:05.716Z,14.9
2022-08-07T06:16:03.622Z,14.93
2022-08-07T06:17:07.032Z,14.98
2022-08-07T06:18:04.456Z,14.91
2022-08-07T06:19:06.460Z,14.94
2022-08-07T06:20:04.824Z,14.93
2022-08-07T06:22:15.240Z,14.98
2022-08-07T06:22:15.415Z,15.14
2022-08-07T06:23:46.909Z,15.15
2022-08-07T06:24:48.154Z,15.23
2022-08-07T06:25:13.623Z,15.22
2022-08-07T06:26:14.511Z,15.28
2022-08-07T06:28:14.864Z,15.47
2022-08-07T06:29:14.676Z,15.33
2022-08-07T06:30:32.267Z,15.43
2022-08-07T06:31:16.029Z,15.44
2022-08-07T06:32:16.139Z,15.37
2022-08-07T06:33:16.843Z,15.48
2022-08-07T06:34:16.183Z,15.5
2022-08-07T06:35:17.695Z,15.49
2022-08-07T06:36:16.499Z,15.64
2022-08-07T06:37:20.579Z,15.54
2022-08-07T06:38:20.459Z,15.55
2022-08-07T06:40:16.059Z,15.44
2022-08-07T06:40:21.135Z,15.53
2022-08-07T06:42:34.990Z,15.56
2022-08-07T06:43:23.579Z,15.56
2022-08-07T06:44:24.221Z,15.7
2022-08-07T06:45:23.770Z,15.74
2022-08-07T06:46:31.393Z,15.76
2022-08-07T06:47:27.493Z,15.72
2022-08-07T06:48:31.065Z,15.76
2022-08-07T06:49:31.171Z,15.86
2022-08-07T06:50:31.996Z,15.93
2022-08-07T06:51:33.708Z,15.92
2022-08-07T06:52:36.509Z,15.89
2022-08-07T06:54:11.719Z,15.92
2022-08-07T06:55:32.815Z,16.15
2022-08-07T06:55:53.933Z,16.01
2022-08-07T06:56:48.720Z,15.9
2022-08-07T06:57:51.999Z,16.04
2022-08-07T07:00:11.760Z,16.24
2022-08-07T07:00:12.237Z,16.16
2022-08-07T07:00:54.328Z,16.22
2022-08-07T07:01:54.881Z,16.21
2022-08-07T07:02:58.165Z,16.24
2022-08-07T07:04:05.569Z,16.19
2022-08-07T07:04:59.349Z,16.19
2022-08-07T07:06:04.355Z,16.29
2022-08-07T07:07:18.862Z,16.31
2022-08-07T07:08:10.061Z,16.24
2022-08-07T07:09:16.811Z,16.26
2022-08-07T07:10:14.579Z,16.3
2022-08-07T07:12:08.494Z,16.2
2022-08-07T07:14:28.029Z,16.45
2022-08-07T07:15:32.540Z,16.27
2022-08-07T07:16:30.846Z,16.56
2022-08-07T07:17:39.075Z,16.49
2022-08-07T07:18:48.201Z,16.4
2022-08-07T07:19:57.428Z,16.6
2022-08-07T07:22:04.972Z,16.56
2022-08-07T07:24:09.419Z,16.84
2022-08-07T07:24:10.987Z,16.88
2022-08-07T07:24:57.022Z,16.82
2022-08-07T07:26:35.941Z,16.78
2022-08-07T07:26:59.789Z,16.8
2022-08-07T07:29:39.031Z,16.79
2022-08-07T07:30:09.456Z,16.89
2022-08-07T07:32:07.475Z,16.83
2022-08-07T07:33:05.257Z,16.88
2022-08-07T07:34:06.373Z,17.11
2022-08-07T07:35:06.181Z,17.13
2022-08-07T07:36:12.799Z,17.11
2022-08-07T07:37:22.073Z,17.05
2022-08-07T07:38:08.688Z,17.3
2022-08-07T07:39:10.195Z,17.44
2022-08-07T07:40:15.070Z,17.33
2022-08-07T07:41:12.450Z,17.19
2022-08-07T07:42:14.048Z,17.28
2022-08-07T07:43:18.686Z,17.3
2022-08-07T07:44:21.399Z,16.83
2022-08-07T07:46:36.618Z,16.82
2022-08-07T07:46:37.147Z,16.75
2022-08-07T07:47:24.636Z,16.95
2022-08-07T07:48:36.096Z,17.28
2022-08-07T07:50:33.946Z,17.4
2022-08-07T07:50:39.173Z,17.33
2022-08-07T07:51:32.216Z,17.4
2022-08-07T07:52:34.114Z,17.67
2022-08-07T07:53:34.829Z,17.69
2022-08-07T07:54:35.885Z,17.66
2022-08-07T07:55:37.557Z,17.52
2022-08-07T07:56:38.482Z,17.28
2022-08-07T07:57:51.795Z,17.31
2022-08-07T07:58:41.229Z,17.2
2022-08-07T07:59:52.882Z,17.24
2022-08-07T08:00:42.058Z,17.06
2022-08-07T08:02:02.300Z,17.1
2022-08-07T08:03:01.164Z,16.98
2022-08-07T08:04:10.038Z,16.92
2022-08-07T08:04:51.143Z,17.03
2022-08-07T08:05:54.870Z,16.89
2022-08-07T08:06:53.344Z,16.79
2022-08-07T08:08:00.873Z,16.66
2022-08-07T08:08:53.361Z,16.66
2022-08-07T08:10:05.249Z,16.77
2022-08-07T08:10:57.844Z,16.56
2022-08-07T08:12:02.003Z,16.49
2022-08-07T08:13:03.070Z,16.46
2022-08-07T08:14:00.124Z,16.57
2022-08-07T08:15:01.147Z,16.75
2022-08-07T08:16:05.756Z,16.89
2022-08-07T08:17:55.534Z,17.12
2022-08-07T08:18:17.849Z,17.31
2022-08-07T08:20:15.862Z,17.59
2022-08-07T08:20:17.302Z,17.78
2022-08-07T08:21:16.165Z,18.18
2022-08-07T08:22:14.744Z,18.29
2022-08-07T08:23:14.925Z,18.49
2022-08-07T08:24:34.407Z,18.47
2022-08-07T08:25:41.725Z,18.43
2022-08-07T08:26:21.872Z,18.68
2022-08-07T08:27:22.691Z,18.55
2022-08-07T08:28:23.978Z,18.47
2022-08-07T08:29:24.774Z,18.15
2022-08-07T08:30:29.223Z,18.11
2022-08-07T08:32:17.199Z,18.06
2022-08-07T08:32:38.212Z,18.2
2022-08-07T08:33:36.760Z,18.2
2022-08-07T08:34:35.606Z,18.07
2022-08-07T08:35:42.873Z,17.72
2022-08-07T08:36:40.222Z,17.74
2022-08-07T08:37:59.690Z,17.9
2022-08-07T08:38:45.206Z,17.82
2022-08-07T08:39:54.846Z,17.63
2022-08-07T08:40:48.498Z,17.63
2022-08-07T08:41:58.964Z,17.6
2022-08-07T08:55:53.241Z,17.97
2022-08-07T08:56:33.521Z,18.22
2022-08-07T08:57:37.675Z,18.12
2022-08-07T08:58:42.483Z,18.6
2022-08-07T09:00:43.369Z,19
2022-08-07T09:07:06.343Z,18.25
2022-08-07T09:10:03.276Z,18.84
2022-08-07T09:11:06.100Z,18.97
2022-08-07T09:12:31.153Z,18.79
2022-08-07T09:22:22.472Z,17.95
2022-08-07T09:27:59.848Z,18.87
2022-08-07T09:30:01.264Z,18.96
2022-08-07T09:36:01.348Z,18.82
2022-08-07T09:36:09.629Z,18.91
2022-08-07T09:37:11.677Z,18.95
2022-08-07T09:38:15.763Z,19.31
2022-08-07T09:41:43.395Z,19.51
2022-08-07T09:42:34.199Z,19.49
2022-08-07T09:43:40.024Z,19.78
2022-08-07T09:47:25.882Z,19.92
2022-08-07T09:47:50.854Z,19.42
2022-08-07T09:52:52.141Z,19.39
2022-08-07T09:53:56.995Z,19.53
2022-08-07T09:54:56.286Z,19.14
2022-08-07T10:00:14.416Z,18.51
2022-08-07T10:04:05.433Z,19.34
2022-08-07T10:12:52.586Z,19.97
2022-08-07T10:27:17.454Z,20.02
2022-08-07T10:30:27.663Z,19.27
2022-08-07T10:38:49.181Z,19.47
2022-08-07T10:40:47.542Z,19.46
2022-08-07T10:42:01.630Z,19.53
2022-08-07T10:52:14.028Z,19.87
2022-08-07T10:58:36.676Z,20.19
2022-08-07T11:00:39.751Z,20.14
2022-08-07T11:04:51.243Z,20.66
2022-08-07T11:05:53.710Z,20.5
2022-08-07T11:10:07.444Z,21.03
2022-08-07T11:11:07.928Z,20.56
2022-08-07T11:12:02.786Z,20.73
2022-08-07T11:13:07.250Z,20.05
2022-08-07T11:14:45.485Z,20.11
2022-08-07T11:15:14.487Z,20.13
2022-08-07T11:16:09.886Z,20.05
2022-08-07T11:17:11.343Z,19.51
2022-08-07T11:18:18.271Z,19.92
2022-08-07T11:19:21.654Z,20.2
2022-08-07T11:20:17.938Z,20.34
2022-08-07T11:23:36.531Z,20.23
2022-08-07T11:24:33.580Z,20.3
2022-08-07T11:25:36.240Z,20.81
2022-08-07T11:28:53.465Z,20.03
2022-08-07T11:29:53.834Z,20.3
2022-08-07T11:31:54.034Z,20.46
2022-08-07T11:34:00.118Z,19.95
2022-08-07T11:34:59.405Z,20.52
2022-08-07T11:37:02.406Z,20.84
2022-08-07T11:38:10.266Z,20.78
2022-08-07T11:44:22.607Z,20.66
2022-08-07T11:50:35.384Z,20.69
2022-08-07T11:51:46.506Z,20.95
2022-08-07T11:52:43.451Z,21.11
2022-08-07T11:54:01.796Z,20.97
2022-08-07T11:54:51.447Z,20.53
2022-08-07T11:57:59.886Z,19.77
2022-08-07T12:01:04.406Z,20.29
2022-08-07T12:02:02.853Z,20.25
2022-08-07T12:07:20.583Z,20.56
2022-08-07T12:10:19.506Z,20.92
2022-08-07T12:11:24.338Z,20.71
2022-08-07T12:14:30.509Z,21.22
2022-08-07T12:16:41.071Z,21.23
2022-08-07T12:17:58.998Z,20.73
2022-08-07T12:20:52.140Z,21.04
2022-08-07T12:24:37.020Z,21.24
2022-08-07T12:26:23.360Z,21.62
2022-08-07T12:28:15.104Z,21.1
2022-08-07T12:29:15.941Z,21.22
2022-08-07T12:30:12.800Z,21.28
2022-08-07T12:31:17.196Z,21.65
2022-08-07T12:32:23.169Z,21.48
2022-08-07T12:33:18.785Z,21.73
2022-08-07T12:34:15.959Z,22.55
2022-08-07T12:35:16.043Z,22.23
2022-08-07T12:36:16.437Z,22.14
2022-08-07T12:37:23.461Z,22.82
2022-08-07T12:38:36.776Z,22.51
2022-08-07T12:39:42.772Z,22.2
2022-08-07T12:40:46.560Z,22.35
2022-08-07T12:41:49.263Z,22.28
2022-08-07T12:42:32.964Z,22.61
2022-08-07T12:44:02.703Z,22.12
2022-08-07T12:44:38.664Z,22.61
2022-08-07T12:51:17.257Z,21.74
2022-08-07T12:55:16.607Z,20.74
2022-08-07T12:57:10.911Z,21.1
2022-08-07T12:58:14.217Z,20.55
2022-08-07T12:59:20.426Z,21.04
2022-08-07T13:00:16.357Z,21.55
2022-08-07T13:01:19.249Z,21.52
2022-08-07T13:15:55.012Z,21.63
2022-08-07T13:16:59.326Z,21.9
2022-08-07T13:23:59.835Z,21.49
2022-08-07T13:27:24.956Z,19.94
2022-08-07T13:28:24.342Z,19.99
2022-08-07T13:30:41.051Z,19.68
2022-08-07T13:31:46.024Z,19.58
2022-08-07T13:32:41.315Z,19.52
2022-08-07T13:36:00.483Z,20.12
2022-08-07T13:36:51.415Z,19.81
2022-08-07T13:37:58.906Z,19.85
2022-08-07T13:38:54.319Z,19.9
2022-08-07T13:41:55.078Z,19.78
2022-08-07T13:42:56.518Z,19.72
2022-08-07T13:43:55.946Z,19.7
2022-08-07T13:45:20.857Z,20.19
2022-08-07T13:46:11.070Z,20.86
2022-08-07T13:47:04.745Z,21.14
2022-08-07T13:48:08.858Z,21.25
2022-08-07T13:49:08.876Z,21.11
2022-08-07T13:50:34.722Z,21.44
2022-08-07T13:51:27.799Z,21.38
2022-08-07T13:52:27.199Z,21.31
2022-08-07T13:54:22.474Z,20.89
2022-08-07T13:55:26.426Z,21.24
2022-08-07T13:56:35.734Z,21.14
2022-08-07T13:57:32.142Z,20.94
2022-08-07T13:58:31.446Z,20.81
2022-08-07T13:59:31.667Z,20.67
2022-08-07T14:00:35.160Z,20.83
2022-08-07T14:01:33.447Z,21
2022-08-07T14:02:49.462Z,21.04
2022-08-07T14:04:06.765Z,20.88
2022-08-07T14:05:44.175Z,20.77
2022-08-07T14:06:47.139Z,21
2022-08-07T14:08:00.264Z,20.89
2022-08-07T14:08:53.785Z,20.89
2022-08-07T14:10:01.949Z,21.09
2022-08-07T14:11:14.726Z,21.17
2022-08-07T14:12:01.176Z,21.23
2022-08-07T14:13:01.605Z,21.17
2022-08-07T14:14:07.511Z,21.01
2022-08-07T14:15:04.581Z,21.04
2022-08-07T14:16:06.073Z,21.12
2022-08-07T14:17:13.064Z,21.06
2022-08-07T14:19:17.848Z,20.63
2022-08-07T14:20:42.100Z,20.38
2022-08-07T14:21:20.851Z,20.25
2022-08-07T14:22:34.538Z,19.97
2022-08-07T14:23:31.566Z,19.6
2022-08-07T14:25:39.670Z,19.18
2022-08-07T14:26:37.432Z,19.17
2022-08-07T14:28:12.615Z,19.14
2022-08-07T14:28:57.359Z,19.1
2022-08-07T14:30:40.659Z,19.02
2022-08-07T14:31:42.937Z,19.07
2022-08-07T14:33:45.285Z,19.15
2022-08-07T14:34:45.710Z,19.24
2022-08-07T14:35:47.672Z,19.3
2022-08-07T14:36:45.601Z,19.31
2022-08-07T14:38:03.397Z,19.04
2022-08-07T14:38:50.633Z,19.01
2022-08-07T14:40:16.923Z,18.93
2022-08-07T14:40:54.014Z,19.02
2022-08-07T14:42:20.096Z,19.15
2022-08-07T14:43:58.342Z,19.62
2022-08-07T14:45:58.455Z,20.23
2022-08-07T14:48:01.171Z,19.51
2022-08-07T14:49:55.701Z,19.86
2022-08-07T14:50:06.585Z,20.07
2022-08-07T14:51:15.873Z,20.34
2022-08-07T14:52:10.387Z,20.52
2022-08-07T14:53:08.330Z,20.78
2022-08-07T14:54:30.853Z,20.78
2022-08-07T14:56:15.928Z,21.29
2022-08-07T14:57:54.911Z,21.52
2022-08-07T14:58:24.118Z,21.7
2022-08-07T15:00:03.779Z,21.82
2022-08-07T15:00:30.411Z,21.78
2022-08-07T15:01:28.277Z,22.34
2022-08-07T15:02:31.788Z,21.88
2022-08-07T15:03:52.368Z,22.21
2022-08-07T15:04:38.643Z,21.87
2022-08-07T15:05:34.930Z,21.82
2022-08-07T15:06:38.355Z,22.1
2022-08-07T15:09:57.975Z,22.89
2022-08-07T15:10:58.783Z,22.72
2022-08-07T15:12:54.918Z,22.65
2022-08-07T15:13:56.416Z,22.36
2022-08-07T15:15:07.667Z,22.5
2022-08-07T15:15:57.934Z,21.99
2022-08-07T15:18:57.261Z,20.58
2022-08-07T15:20:30.931Z,20.36
2022-08-07T15:21:04.007Z,20.22
2022-08-07T15:23:16.978Z,21.22
2022-08-07T15:25:19.015Z,20.94
2022-08-07T15:27:20.476Z,20.38
2022-08-07T15:30:25.018Z,19.97
2022-08-07T15:32:02.075Z,19.8
2022-08-07T15:32:39.058Z,19.71
2022-08-07T15:33:36.235Z,19.54
2022-08-07T15:36:01.652Z,19.23
2022-08-07T15:37:02.685Z,19.21
2022-08-07T15:38:51.374Z,19.17
2022-08-07T15:39:56.341Z,19.27
2022-08-07T15:41:00.138Z,19.09
2022-08-07T15:43:03.278Z,18.89
2022-08-07T15:44:04.086Z,18.88
2022-08-07T15:45:09.506Z,18.91
2022-08-07T15:47:16.783Z,18.82
2022-08-07T15:48:26.926Z,18.77
2022-08-07T15:49:18.778Z,18.71
2022-08-07T15:50:37.456Z,18.63
2022-08-07T15:51:22.274Z,18.6
2022-08-07T15:52:30.132Z,18.72
2022-08-07T15:53:51.928Z,18.55
2022-08-07T15:54:34.747Z,18.53
2022-08-07T15:55:53.365Z,18.57
2022-08-07T15:56:36.509Z,18.49
2022-08-07T15:57:47.506Z,18.6
2022-08-07T15:58:38.768Z,18.4
2022-08-07T15:59:37.978Z,18.46
2022-08-07T16:00:38.362Z,18.29
2022-08-07T16:01:39.757Z,18.5
2022-08-07T16:02:42.295Z,18.66
2022-08-07T16:03:47.382Z,19.01
2022-08-07T16:04:40.389Z,19.43
2022-08-07T16:05:44.471Z,19.64
2022-08-07T16:06:51.770Z,19.77
2022-08-07T16:08:32.499Z,20.14
2022-08-07T16:08:49.586Z,19.73
2022-08-07T16:09:52.336Z,19.63
2022-08-07T16:16:06.858Z,19.37
2022-08-07T16:25:52.398Z,19.25
2022-08-07T16:30:37.687Z,19.06
2022-08-07T16:32:54.011Z,18.87
2022-08-07T16:34:03.219Z,18.88
2022-08-07T16:38:09.483Z,18.65
2022-08-07T16:50:39.213Z,18.66
2022-08-07T16:55:47.119Z,18.32
2022-08-07T16:59:52.073Z,17.97
2022-08-07T17:01:59.225Z,18
2022-08-07T17:08:10.443Z,17.91
2022-08-07T17:10:05.113Z,17.91
2022-08-07T17:12:44.603Z,17.87
2022-08-07T17:17:46.183Z,17.42
2022-08-07T17:20:02.989Z,17.39
2022-08-07T17:20:40.903Z,17.32
2022-08-07T17:21:51.844Z,17.33
2022-08-07T17:22:48.453Z,17.33
2022-08-07T17:24:55.458Z,17.1
2022-08-07T17:26:03.240Z,16.96
2022-08-07T17:27:04.070Z,16.89
2022-08-07T17:30:14.410Z,16.74
2022-08-07T17:34:08.365Z,16.74
2022-08-07T17:36:20.256Z,16.48
2022-08-07T17:38:33.621Z,16.39
2022-08-07T17:42:01.910Z,16.17
2022-08-07T17:44:01.887Z,16.13
2022-08-07T17:45:39.790Z,16.15
2022-08-07T17:50:59.961Z,15.67
2022-08-07T17:53:08.439Z,15.72
2022-08-07T17:56:15.420Z,15.63
2022-08-07T17:57:18.512Z,15.52
2022-08-07T17:59:20.137Z,15.42
2022-08-07T18:00:33.375Z,15.46
2022-08-07T18:01:36.197Z,15.34
2022-08-07T18:06:01.484Z,15.18
2022-08-07T18:06:47.337Z,15.15
2022-08-07T18:07:44.116Z,15.1
2022-08-07T18:09:48.239Z,15.32
2022-08-07T18:18:46.807Z,14.96
2022-08-07T18:21:05.868Z,15.05
2022-08-07T18:21:12.397Z,15.13
2022-08-07T18:21:42.191Z,15.11
2022-08-07T18:25:39.434Z,14.82
2022-08-07T18:26:38.288Z,14.74
2022-08-07T18:28:58.344Z,14.72
2022-08-07T18:30:52.216Z,14.89
2022-08-07T18:40:05.265Z,14.41
2022-08-07T18:40:39.705Z,14.31
2022-08-07T18:50:29.845Z,14.42
2022-08-07T19:02:59.137Z,14.26
2022-08-07T19:04:09.420Z,14.33
2022-08-07T19:05:14.824Z,14.32
2022-08-07T19:06:05.145Z,14.32
2022-08-07T19:07:09.808Z,14.34
2022-08-07T19:08:10.327Z,14.35
2022-08-07T19:09:55.794Z,14.33
2022-08-07T19:10:21.641Z,14.33
2022-08-07T19:11:36.002Z,14.31